PWSweather.com
Personal Weather Stations
Station Observations
PYRZYCE
PyrzycePL

PyrzycePL

Lat: 53.146, Lon: 14.8924

Elevation: 150

Station Type:

Latest ConditionsUpdated 6:25:03 AM GMT+01:01 Friday, Jun 23, 2017
Currently Today's Max Today's Min Today's Average
Temperature 67.6°F19.8°C 68.2°F20.1°C 62.6°F17.0°C 65.1°F18.4°C
Dew Point 64.0°F17.8°C 65.0°F18.3°C 59.8°F15.4°C 62.5°F16.9°C
Winds 5.1 mph NE8.2 kmh NE 6.1 mph N9.8 kmh N - 3.0 mph 4.8 kmh
Wind Gusts 9.8 mph15.8 kmh 15.2 mph24.5 kmh - -
Humidity 88% 93% 87% 91%
Pressure 29.86 in1011.2 mb 29.92 in1013.2 mb 29.79 in1008.8 mb -
Precipitation - 0.13 in3.3 mm - -
Hour Temp Dew Point Humidity Winds Wind Gusts Pressure Precip Precip Rate Daily Precip Total
06:25 AM 67.6°F19.8°C 64.0°F17.8°C 88% 5.1 mph NE8.2 kmh NE 9.8 mph15.8 kmh 29.86 in1011.2 mb 0.00 in0.0 mm 0.00 in0.0 mm 0.13 in3.3 mm
06:20 AM 68.0°F20.0°C 64.0°F17.8°C 87% 5.2 mph NNE8.4 kmh NNE 10.7 mph17.2 kmh 29.86 in1011.2 mb 0.00 in0.0 mm 0.00 in0.0 mm 0.13 in3.3 mm
06:15 AM 68.2°F20.1°C 64.2°F17.9°C 87% 4.6 mph NNE7.4 kmh NNE 10.7 mph17.2 kmh 29.86 in1011.2 mb 0.00 in0.0 mm 0.00 in0.0 mm 0.13 in3.3 mm
06:10 AM 68.0°F20.0°C 64.3°F17.9°C 88% 4.5 mph NNE7.2 kmh NNE 10.7 mph17.2 kmh 29.86 in1011.2 mb 0.00 in0.0 mm 0.00 in0.0 mm 0.13 in3.3 mm
06:05 AM 67.8°F19.9°C 64.8°F18.2°C 90% 4.6 mph NE7.4 kmh NE 10.7 mph17.2 kmh 29.86 in1011.2 mb 0.01 in0.3 mm 0.00 in0.0 mm 0.13 in3.3 mm
06:00 AM 66.9°F19.4°C 63.9°F17.7°C 90% 5.3 mph E8.5 kmh E 15.2 mph24.5 kmh 29.87 in1011.5 mb 0.01 in0.3 mm 0.00 in0.0 mm 0.13 in3.3 mm
05:55 AM 66.6°F19.2°C 63.6°F17.6°C 90% 5.5 mph E8.9 kmh E 15.2 mph24.5 kmh 29.87 in1011.5 mb 0.01 in0.3 mm 0.00 in0.0 mm 0.13 in3.3 mm
05:50 AM 66.6°F19.2°C 63.6°F17.6°C 90% 5.4 mph E8.7 kmh E 13.6 mph21.9 kmh 29.87 in1011.5 mb 0.01 in0.3 mm 0.00 in0.0 mm 0.13 in3.3 mm
05:45 AM 66.9°F19.4°C 63.9°F17.7°C 90% 4.8 mph E7.7 kmh E 13.6 mph21.9 kmh 29.87 in1011.5 mb 0.01 in0.3 mm 0.00 in0.0 mm 0.13 in3.3 mm
05:40 AM 66.7°F19.3°C 63.7°F17.6°C 90% 4.0 mph NE6.4 kmh NE 8.3 mph13.4 kmh 29.86 in1011.2 mb 0.01 in0.3 mm 0.00 in0.0 mm 0.13 in3.3 mm
05:35 AM 66.6°F19.2°C 63.6°F17.6°C 90% 4.0 mph NE6.4 kmh NE 9.2 mph14.8 kmh 29.86 in1011.2 mb 0.01 in0.3 mm 0.00 in0.0 mm 0.13 in3.3 mm
05:30 AM 66.4°F19.1°C 63.7°F17.6°C 91% 4.4 mph NE7.1 kmh NE 10.7 mph17.2 kmh 29.86 in1011.2 mb 0.01 in0.3 mm 0.00 in0.0 mm 0.13 in3.3 mm
05:25 AM 66.2°F19.0°C 63.5°F17.5°C 91% 4.4 mph NE7.1 kmh NE 10.7 mph17.2 kmh 29.85 in1010.8 mb 0.01 in0.3 mm 0.00 in0.0 mm 0.13 in3.3 mm
05:20 AM 65.8°F18.8°C 63.5°F17.5°C 92% 4.1 mph N6.6 kmh N 8.3 mph13.4 kmh 29.86 in1011.2 mb 0.01 in0.3 mm 0.00 in0.0 mm 0.13 in3.3 mm
05:15 AM 65.1°F18.4°C 62.8°F17.1°C 92% 4.2 mph N6.8 kmh N 8.3 mph13.4 kmh 29.85 in1010.8 mb 0.01 in0.3 mm 0.00 in0.0 mm 0.13 in3.3 mm
05:10 AM 65.1°F18.4°C 62.8°F17.1°C 92% 3.9 mph NNE6.3 kmh NNE 8.3 mph13.4 kmh 29.86 in1011.2 mb 0.01 in0.3 mm 0.12 in3.0 mm 0.13 in3.3 mm
05:05 AM 65.1°F18.4°C 62.8°F17.1°C 92% 3.4 mph NNE5.5 kmh NNE 8.3 mph13.4 kmh 29.86 in1011.2 mb 0.00 in0.0 mm 0.00 in0.0 mm 0.12 in3.0 mm
05:00 AM 64.9°F18.3°C 62.6°F17.0°C 92% 3.4 mph NNE5.5 kmh NNE 7.6 mph12.2 kmh 29.86 in1011.2 mb 0.00 in0.0 mm 0.00 in0.0 mm 0.12 in3.0 mm
04:55 AM 64.8°F18.2°C 62.4°F16.9°C 92% 4.1 mph N6.6 kmh N 7.6 mph12.2 kmh 29.86 in1011.2 mb 0.00 in0.0 mm 0.00 in0.0 mm 0.12 in3.0 mm
04:50 AM 64.6°F18.1°C 62.2°F16.8°C 92% 4.2 mph NNE6.8 kmh NNE 8.3 mph13.4 kmh 29.86 in1011.2 mb 0.00 in0.0 mm 0.00 in0.0 mm 0.12 in3.0 mm
04:45 AM 64.6°F18.1°C 62.2°F16.8°C 92% 3.8 mph NNE6.1 kmh NNE 8.3 mph13.4 kmh 29.87 in1011.5 mb 0.00 in0.0 mm 0.00 in0.0 mm 0.12 in3.0 mm
04:40 AM 64.6°F18.1°C 62.2°F16.8°C 92% 3.8 mph NNE6.1 kmh NNE 7.6 mph12.2 kmh 29.86 in1011.2 mb 0.00 in0.0 mm 0.00 in0.0 mm 0.12 in3.0 mm
04:35 AM 64.4°F18.0°C 62.0°F16.7°C 92% 4.4 mph N7.1 kmh N 10.7 mph17.2 kmh 29.86 in1011.2 mb 0.00 in0.0 mm 0.00 in0.0 mm 0.12 in3.0 mm
04:30 AM 64.2°F17.9°C 61.2°F16.2°C 90% 4.6 mph N7.4 kmh N 10.7 mph17.2 kmh 29.86 in1011.2 mb 0.00 in0.0 mm 0.00 in0.0 mm 0.12 in3.0 mm
04:25 AM 64.2°F17.9°C 61.6°F16.4°C 91% 4.1 mph N6.6 kmh N 9.8 mph15.8 kmh 29.85 in1010.8 mb 0.00 in0.0 mm 0.00 in0.0 mm 0.12 in3.0 mm
04:20 AM 64.0°F17.8°C 61.4°F16.3°C 91% 3.6 mph N5.8 kmh N 7.6 mph12.2 kmh 29.86 in1011.2 mb 0.00 in0.0 mm 0.00 in0.0 mm 0.12 in3.0 mm
04:15 AM 64.0°F17.8°C 61.4°F16.3°C 91% 3.2 mph N5.1 kmh N 7.6 mph12.2 kmh 29.86 in1011.2 mb 0.00 in0.0 mm 0.00 in0.0 mm 0.12 in3.0 mm
04:10 AM 64.0°F17.8°C 61.7°F16.5°C 92% 2.8 mph N4.5 kmh N 6.0 mph9.7 kmh 29.87 in1011.5 mb 0.00 in0.0 mm 0.00 in0.0 mm 0.12 in3.0 mm
04:05 AM 64.0°F17.8°C 61.7°F16.5°C 92% 2.4 mph N3.9 kmh N 5.4 mph8.7 kmh 29.86 in1011.2 mb 0.00 in0.0 mm 0.00 in0.0 mm 0.12 in3.0 mm
04:00 AM 64.0°F17.8°C 61.7°F16.5°C 92% 2.3 mph NNE3.7 kmh NNE 5.4 mph8.7 kmh 29.86 in1011.2 mb 0.00 in0.0 mm 0.00 in0.0 mm 0.12 in3.0 mm
03:55 AM 62.6°F17.0°C 60.3°F15.7°C 92% 2.5 mph N4.0 kmh N 6.0 mph9.7 kmh 29.85 in1010.8 mb 0.00 in0.0 mm 0.00 in0.0 mm 0.12 in3.0 mm
03:50 AM 62.6°F17.0°C 60.3°F15.7°C 92% 2.2 mph N3.5 kmh N 6.0 mph9.7 kmh 29.86 in1011.2 mb 0.00 in0.0 mm 0.00 in0.0 mm 0.12 in3.0 mm
03:45 AM 62.6°F17.0°C 60.3°F15.7°C 92% 1.5 mph NNE2.4 kmh NNE 3.8 mph6.1 kmh 29.86 in1011.2 mb 0.00 in0.0 mm 0.00 in0.0 mm 0.12 in3.0 mm
03:40 AM 62.6°F17.0°C 60.3°F15.7°C 92% 1.1 mph NNE1.8 kmh NNE 3.1 mph5.0 kmh 29.86 in1011.2 mb 0.00 in0.0 mm 0.00 in0.0 mm 0.12 in3.0 mm
03:35 AM 62.6°F17.0°C 60.0°F15.6°C 91% 0.9 mph N1.4 kmh N 2.2 mph3.5 kmh 29.85 in1010.8 mb 0.00 in0.0 mm 0.00 in0.0 mm 0.12 in3.0 mm
03:30 AM 62.6°F17.0°C 60.0°F15.6°C 91% 1.0 mph NNW1.6 kmh NNW 3.1 mph5.0 kmh 29.84 in1010.5 mb 0.00 in0.0 mm 0.00 in0.0 mm 0.12 in3.0 mm
03:25 AM 62.6°F17.0°C 60.0°F15.6°C 91% 0.6 mph NNW1.0 kmh NNW 3.1 mph5.0 kmh 29.84 in1010.5 mb 0.00 in0.0 mm 0.00 in0.0 mm 0.12 in3.0 mm
03:20 AM 62.6°F17.0°C 60.0°F15.6°C 91% 0.1 mph N0.2 kmh N 1.6 mph2.6 kmh 29.84 in1010.5 mb 0.00 in0.0 mm 0.00 in0.0 mm 0.12 in3.0 mm
03:15 AM 62.8°F17.1°C 60.1°F15.6°C 91% Calm Calm 0.7 mph1.1 kmh 29.85 in1010.8 mb 0.00 in0.0 mm 0.00 in0.0 mm 0.12 in3.0 mm
03:10 AM 62.8°F17.1°C 60.1°F15.6°C 91% Calm Calm 0.7 mph1.1 kmh 29.84 in1010.5 mb 0.00 in0.0 mm 0.00 in0.0 mm 0.12 in3.0 mm
03:05 AM 62.8°F17.1°C 59.8°F15.4°C 90% 0.2 mph N0.3 kmh N 1.6 mph2.6 kmh 29.84 in1010.5 mb 0.00 in0.0 mm 0.00 in0.0 mm 0.12 in3.0 mm
03:00 AM 62.8°F17.1°C 59.8°F15.4°C 90% 0.3 mph N0.5 kmh N 1.6 mph2.6 kmh 29.84 in1010.5 mb 0.00 in0.0 mm 0.00 in0.0 mm 0.12 in3.0 mm
02:55 AM 64.2°F17.9°C 61.2°F16.2°C 90% 0.3 mph ENE0.5 kmh ENE 1.6 mph2.6 kmh 29.85 in1010.8 mb 0.00 in0.0 mm 0.00 in0.0 mm 0.12 in3.0 mm
02:50 AM 64.2°F17.9°C 61.2°F16.2°C 90% 0.3 mph E0.5 kmh E 1.6 mph2.6 kmh 29.85 in1010.8 mb 0.00 in0.0 mm 0.00 in0.0 mm 0.12 in3.0 mm
02:45 AM 64.4°F18.0°C 62.0°F16.7°C 92% 0.2 mph E0.3 kmh E 1.6 mph2.6 kmh 29.85 in1010.8 mb 0.00 in0.0 mm 0.00 in0.0 mm 0.12 in3.0 mm
02:40 AM 64.4°F18.0°C 62.0°F16.7°C 92% 0.1 mph E0.2 kmh E 1.6 mph2.6 kmh 29.85 in1010.8 mb 0.00 in0.0 mm 0.00 in0.0 mm 0.12 in3.0 mm
02:35 AM 64.4°F18.0°C 62.0°F16.7°C 92% Calm Calm 1.6 mph2.6 kmh 29.84 in1010.5 mb 0.00 in0.0 mm 0.00 in0.0 mm 0.12 in3.0 mm
02:30 AM 64.4°F18.0°C 62.0°F16.7°C 92% 0.5 mph NNE0.8 kmh NNE 2.2 mph3.5 kmh 29.84 in1010.5 mb 0.00 in0.0 mm 0.00 in0.0 mm 0.12 in3.0 mm
02:25 AM 64.4°F18.0°C 62.0°F16.7°C 92% 1.1 mph E1.8 kmh E 3.8 mph6.1 kmh 29.84 in1010.5 mb 0.00 in0.0 mm 0.00 in0.0 mm 0.12 in3.0 mm
02:20 AM 64.4°F18.0°C 62.0°F16.7°C 92% 1.4 mph E2.3 kmh E 3.8 mph6.1 kmh 29.84 in1010.5 mb 0.00 in0.0 mm 0.00 in0.0 mm 0.12 in3.0 mm
02:15 AM 64.4°F18.0°C 62.0°F16.7°C 92% 1.8 mph E2.9 kmh E 4.5 mph7.2 kmh 29.85 in1010.8 mb 0.00 in0.0 mm 0.00 in0.0 mm 0.12 in3.0 mm
02:10 AM 64.6°F18.1°C 62.2°F16.8°C 92% 1.7 mph E2.7 kmh E 4.5 mph7.2 kmh 29.85 in1010.8 mb 0.00 in0.0 mm 0.00 in0.0 mm 0.12 in3.0 mm
02:05 AM 64.6°F18.1°C 62.2°F16.8°C 92% 1.9 mph E3.1 kmh E 5.4 mph8.7 kmh 29.85 in1010.8 mb 0.00 in0.0 mm 0.00 in0.0 mm 0.12 in3.0 mm
02:00 AM 64.6°F18.1°C 62.2°F16.8°C 92% 2.0 mph E3.2 kmh E 5.4 mph8.7 kmh 29.85 in1010.8 mb 0.00 in0.0 mm 0.00 in0.0 mm 0.12 in3.0 mm
01:55 AM 64.6°F18.1°C 62.2°F16.8°C 92% 1.7 mph E2.7 kmh E 3.8 mph6.1 kmh 29.85 in1010.8 mb 0.00 in0.0 mm 0.00 in0.0 mm 0.12 in3.0 mm
01:50 AM 64.6°F18.1°C 61.9°F16.6°C 91% 1.6 mph ESE2.6 kmh ESE 3.8 mph6.1 kmh 29.85 in1010.8 mb 0.00 in0.0 mm 0.00 in0.0 mm 0.12 in3.0 mm
01:45 AM 64.9°F18.3°C 62.3°F16.8°C 91% 1.3 mph ESE2.1 kmh ESE 4.5 mph7.2 kmh 29.84 in1010.5 mb 0.00 in0.0 mm 0.00 in0.0 mm 0.12 in3.0 mm
01:40 AM 64.9°F18.3°C 62.3°F16.8°C 91% 2.0 mph NE3.2 kmh NE 6.0 mph9.7 kmh 29.82 in1009.8 mb 0.00 in0.0 mm 0.00 in0.0 mm 0.12 in3.0 mm
01:35 AM 65.1°F18.4°C 62.8°F17.1°C 92% 2.9 mph NNW4.7 kmh NNW 6.0 mph9.7 kmh 29.82 in1009.8 mb 0.00 in0.0 mm 0.00 in0.0 mm 0.12 in3.0 mm
01:30 AM 65.3°F18.5°C 62.9°F17.2°C 92% 3.7 mph NW6.0 kmh NW 7.6 mph12.2 kmh 29.80 in1009.1 mb 0.00 in0.0 mm 0.00 in0.0 mm 0.12 in3.0 mm
01:25 AM 65.3°F18.5°C 62.9°F17.2°C 92% 3.9 mph WNW6.3 kmh WNW 7.6 mph12.2 kmh 29.79 in1008.8 mb 0.00 in0.0 mm 0.00 in0.0 mm 0.12 in3.0 mm
01:20 AM 65.3°F18.5°C 62.9°F17.2°C 92% 3.3 mph WNW5.3 kmh WNW 6.9 mph11.1 kmh 29.80 in1009.1 mb 0.00 in0.0 mm 0.00 in0.0 mm 0.12 in3.0 mm
01:15 AM 65.5°F18.6°C 63.1°F17.3°C 92% 3.2 mph WNW5.1 kmh WNW 6.0 mph9.7 kmh 29.81 in1009.5 mb 0.00 in0.0 mm 0.00 in0.0 mm 0.12 in3.0 mm
01:10 AM 65.5°F18.6°C 63.1°F17.3°C 92% 3.5 mph NW5.6 kmh NW 6.9 mph11.1 kmh 29.81 in1009.5 mb 0.01 in0.3 mm 0.00 in0.0 mm 0.12 in3.0 mm
01:05 AM 65.5°F18.6°C 63.1°F17.3°C 92% 3.4 mph NW5.5 kmh NW 6.9 mph11.1 kmh 29.82 in1009.8 mb 0.01 in0.3 mm 0.00 in0.0 mm 0.12 in3.0 mm
01:00 AM 65.7°F18.7°C 63.3°F17.4°C 92% 2.9 mph NW4.7 kmh NW 6.9 mph11.1 kmh 29.84 in1010.5 mb 0.01 in0.3 mm 0.00 in0.0 mm 0.12 in3.0 mm
12:55 AM 65.8°F18.8°C 63.5°F17.5°C 92% 2.8 mph NW4.5 kmh NW 9.8 mph15.8 kmh 29.85 in1010.8 mb 0.02 in0.5 mm 0.00 in0.0 mm 0.12 in3.0 mm
12:50 AM 66.6°F19.2°C 63.9°F17.7°C 91% 3.2 mph NW5.1 kmh NW 9.8 mph15.8 kmh 29.86 in1011.2 mb 0.04 in1.0 mm 0.00 in0.0 mm 0.12 in3.0 mm
12:45 AM 66.6°F19.2°C 64.2°F17.9°C 92% 3.8 mph NNW6.1 kmh NNW 9.8 mph15.8 kmh 29.86 in1011.2 mb 0.05 in1.3 mm 0.00 in0.0 mm 0.12 in3.0 mm
12:40 AM 66.6°F19.2°C 64.2°F17.9°C 92% 4.2 mph NNW6.8 kmh NNW 8.3 mph13.4 kmh 29.87 in1011.5 mb 0.06 in1.5 mm 0.00 in0.0 mm 0.12 in3.0 mm
12:35 AM 66.6°F19.2°C 64.2°F17.9°C 92% 4.1 mph NNW6.6 kmh NNW 8.3 mph13.4 kmh 29.88 in1011.9 mb 0.08 in2.0 mm 0.00 in0.0 mm 0.12 in3.0 mm
12:30 AM 66.6°F19.2°C 64.2°F17.9°C 92% 4.5 mph N7.2 kmh N 9.2 mph14.8 kmh 29.89 in1012.2 mb 0.09 in2.3 mm 0.00 in0.0 mm 0.12 in3.0 mm
12:25 AM 66.6°F19.2°C 64.5°F18.1°C 93% 5.3 mph N8.5 kmh N 9.2 mph14.8 kmh 29.90 in1012.5 mb 0.11 in2.8 mm 0.00 in0.0 mm 0.12 in3.0 mm
12:20 AM 66.9°F19.4°C 64.9°F18.3°C 93% 5.9 mph N9.5 kmh N 11.4 mph18.3 kmh 29.90 in1012.5 mb 0.11 in2.8 mm 0.00 in0.0 mm 0.12 in3.0 mm
12:15 AM 66.7°F19.3°C 64.7°F18.2°C 93% 6.1 mph N9.8 kmh N 11.4 mph18.3 kmh 29.90 in1012.5 mb 0.12 in3.0 mm 0.12 in3.0 mm 0.12 in3.0 mm
12:10 AM 66.9°F19.4°C 64.9°F18.3°C 93% 5.2 mph N8.4 kmh N 11.4 mph18.3 kmh 29.91 in1012.9 mb 0.11 in2.8 mm 0.00 in0.0 mm 0.11 in2.8 mm
12:05 AM 66.9°F19.4°C 64.9°F18.3°C 93% 5.3 mph N8.5 kmh N 10.7 mph17.2 kmh 29.91 in1012.9 mb 0.11 in2.8 mm 0.00 in0.0 mm 0.11 in2.8 mm
12:00 AM 67.1°F19.5°C 65.0°F18.3°C 93% 5.3 mph NNE8.5 kmh NNE 10.7 mph17.2 kmh 29.92 in1013.2 mb 0.11 in2.8 mm 0.00 in0.0 mm 0.11 in2.8 mm